Bannock, Ohio
Current Conditions -  °F | °C
As of 10:53 AM on Sunday 25 Jan 2015 (Local Time) from KHLG Reporting Station
Haze Haze  
Wind Chill: 30°   Ceiling: 700
Heat Index: 34°   Visibility: 4mi
Dew Point: 30°   Wind: 5mph
Humidity: 85%   Direction: 270°W
Pressure: 29.8"   Gusts: NA
Location:  40.1°N, 80.98°W
Report Text: KHLG 251553Z 27004KT 4SM BR OVC007 01/M01 A2980 RMK AO2 SLP105 T00111011
Loading
Personal Weather Stations






























Interactive Weather Map New forecast layout! Learn more

10-Day Weather Forecast

Advertisements
Track Severe Weather on mobile